Time;durP1;ratioP1;P1;durP2;ratioP2;P2;SDS_P1;SDS_P2;PMS_P1;PMS_P2;Temp;Humidity;BMP_temperature;BMP_pressure;BME280_temperature;BME280_humidity;BME280_pressure;Samples;Min_cycle;Max_cycle;Signal;HPM_P1;HPM_P2
2022/10/11 00:00:24;;;;;;;12.63;6.40;;;13.20;65.20;;;;;;4999460;28;46385;-69
2022/10/11 00:02:49;;;;;;;12.63;7.60;;;13.20;65.30;;;;;;5000546;28;46715;-68
2022/10/11 00:05:16;;;;;;;14.40;7.37;;;13.20;65.50;;;;;;5000165;28;46496;-68
2022/10/11 00:07:41;;;;;;;11.83;6.63;;;13.20;65.60;;;;;;5001107;28;46466;-68
2022/10/11 00:10:08;;;;;;;12.13;6.40;;;13.20;65.50;;;;;;4998532;28;46467;-69
2022/10/11 00:12:35;;;;;;;11.60;6.20;;;13.30;65.40;;;;;;4998755;28;46378;-68
2022/10/11 00:15:02;;;;;;;11.97;6.60;;;13.30;65.30;;;;;;4995813;28;45780;-69
2022/10/11 00:17:27;;;;;;;11.80;6.20;;;13.30;65.30;;;;;;4998499;28;45844;-68
2022/10/11 00:19:53;;;;;;;11.00;6.23;;;13.30;65.20;;;;;;4999063;28;47274;-68
2022/10/11 00:22:18;;;;;;;14.27;6.93;;;13.30;65.20;;;;;;5001102;28;46435;-68
2022/10/11 00:24:44;;;;;;;15.47;6.87;;;13.30;65.30;;;;;;4998257;28;46440;-68
2022/10/11 00:27:09;;;;;;;18.93;6.77;;;13.30;65.40;;;;;;5001206;28;46347;-68
2022/10/11 00:29:36;;;;;;;10.33;6.53;;;13.30;65.50;;;;;;5001160;28;46371;-68
2022/10/11 00:32:02;;;;;;;20.00;6.83;;;13.30;65.60;;;;;;5003442;28;45851;-69
2022/10/11 00:34:27;;;;;;;13.73;6.40;;;13.30;65.70;;;;;;4999171;28;46390;-68
2022/10/11 00:36:53;;;;;;;12.17;6.60;;;13.30;65.80;;;;;;5004222;28;46571;-69
2022/10/11 00:39:19;;;;;;;14.07;8.03;;;13.20;65.90;;;;;;5002615;28;46378;-68
2022/10/11 00:41:46;;;;;;;13.33;8.30;;;13.20;66.30;;;;;;5002692;28;46298;-69
2022/10/11 00:44:17;;;;;;;13.20;7.40;;;13.30;66.80;;;;;;5002712;28;46429;-69
2022/10/11 00:46:50;;;;;;;15.07;8.03;;;13.30;66.60;;;;;;5005578;28;46512;-69
2022/10/11 00:49:48;;;;;;;17.30;7.60;;;13.30;66.60;;;;;;5002035;28;47061;-69
2022/10/11 00:52:28;;;;;;;17.30;6.73;;;13.40;66.40;;;;;;5002911;28;46541;-69
2022/10/11 00:54:55;;;;;;;12.60;8.00;;;13.50;66.10;;;;;;5001179;28;46267;-68
2022/10/11 00:57:25;;;;;;;12.90;7.30;;;13.50;66.20;;;;;;5002236;28;46359;-68
2022/10/11 00:59:53;;;;;;;12.00;8.33;;;13.50;66.20;;;;;;5000848;28;46051;-68
2022/10/11 01:02:20;;;;;;;15.13;7.80;;;13.50;66.30;;;;;;5001277;28;46513;-69
2022/10/11 01:04:45;;;;;;;13.97;7.87;;;13.50;66.60;;;;;;5000736;28;46287;-68
2022/10/11 01:07:11;;;;;;;15.80;7.20;;;13.50;66.80;;;;;;4999666;28;46633;-68
2022/10/11 01:09:37;;;;;;;20.07;8.50;;;13.50;66.90;;;;;;5003494;28;46390;-69
2022/10/11 01:12:10;;;;;;;15.20;7.70;;;13.50;67.00;;;;;;5003216;28;46417;-69
2022/10/11 01:14:50;;;;;;;18.93;7.90;;;13.50;67.30;;;;;;5000068;28;46428;-69
2022/10/11 01:17:21;;;;;;;13.60;7.47;;;13.50;67.50;;;;;;5018453;28;46607;-68
2022/10/11 01:20:11;;;;;;;16.80;7.80;;;13.40;67.60;;;;;;5002183;28;47436;-69
2022/10/11 01:22:56;;;;;;;16.60;7.70;;;13.40;67.60;;;;;;5001742;28;46398;-68
2022/10/11 01:25:24;;;;;;;13.70;6.60;;;13.40;67.60;;;;;;4999032;28;46473;-69
2022/10/11 01:28:11;;;;;;;14.20;6.33;;;13.40;67.60;;;;;;5002998;28;46395;-68
2022/10/11 01:30:37;;;;;;;10.83;6.23;;;13.50;67.60;;;;;;5000888;28;46390;-68
2022/10/11 01:33:11;;;;;;;14.40;6.87;;;13.50;67.60;;;;;;5002375;28;45855;-69
2022/10/11 01:35:39;;;;;;;12.80;7.17;;;13.50;67.60;;;;;;4996818;28;45823;-69
2022/10/11 01:38:26;;;;;;;15.00;6.23;;;13.60;67.70;;;;;;5001424;28;46385;-69
2022/10/11 01:41:01;;;;;;;18.10;6.70;;;13.60;67.50;;;;;;5002689;28;47236;-70
2022/10/11 01:43:27;;;;;;;13.87;6.00;;;13.60;67.60;;;;;;4998812;28;47083;-68
2022/10/11 01:45:56;;;;;;;12.43;5.87;;;13.60;67.70;;;;;;4999392;28;46398;-68
2022/10/11 01:48:22;;;;;;;12.13;6.13;;;13.50;67.60;;;;;;5005887;28;46404;-69
2022/10/11 01:50:52;;;;;;;24.03;6.93;;;13.50;67.60;;;;;;5001266;28;46430;-68
2022/10/11 01:53:58;;;;;;;16.40;7.87;;;13.50;67.60;;;;;;5001832;28;45752;-68
2022/10/11 01:56:49;;;;;;;9.63;6.10;;;13.60;67.70;;;;;;5002882;28;46284;-69
2022/10/11 01:59:44;;;;;;;18.80;7.17;;;13.50;67.60;;;;;;5000524;28;46482;-69
2022/10/11 02:02:28;;;;;;;14.80;6.93;;;13.50;67.60;;;;;;4997793;28;46456;-69
2022/10/11 02:05:11;;;;;;;14.60;7.77;;;13.50;67.70;;;;;;4996998;28;46440;-69
2022/10/11 02:07:50;;;;;;;12.10;6.37;;;13.50;67.60;;;;;;4997206;28;46472;-68
2022/10/11 02:10:19;;;;;;;14.27;7.00;;;13.60;67.70;;;;;;4998336;28;46543;-68
2022/10/11 02:13:10;;;;;;;14.40;7.83;;;13.60;67.70;;;;;;4998673;28;47147;-68
2022/10/11 02:15:38;;;;;;;13.73;6.57;;;13.60;67.80;;;;;;4996292;28;46417;-69
2022/10/11 02:18:09;;;;;;;12.63;6.67;;;13.60;67.70;;;;;;4997005;28;46655;-68
2022/10/11 02:20:38;;;;;;;14.30;7.63;;;13.50;67.60;;;;;;4996534;28;46486;-69
2022/10/11 02:23:10;;;;;;;15.50;7.00;;;13.50;67.70;;;;;;4996078;28;47056;-69
2022/10/11 02:25:36;;;;;;;9.20;6.20;;;13.60;67.70;;;;;;5000807;28;46291;-67
2022/10/11 02:28:10;;;;;;;14.07;6.57;;;13.60;67.70;;;;;;5003146;28;46377;-69
2022/10/11 02:30:37;;;;;;;15.40;6.47;;;13.60;67.70;;;;;;5002107;28;46365;-69
2022/10/11 02:33:07;;;;;;;11.97;6.53;;;13.50;67.60;;;;;;5000192;28;46965;-68
2022/10/11 02:35:39;;;;;;;12.47;6.47;;;13.60;67.80;;;;;;5001040;28;46495;-69
2022/10/11 02:38:12;;;;;;;12.43;6.43;;;13.60;67.70;;;;;;5001119;28;45867;-68
2022/10/11 02:40:43;;;;;;;15.77;8.23;;;13.60;67.80;;;;;;5001270;28;45804;-68
2022/10/11 02:43:16;;;;;;;15.80;9.00;;;13.70;67.80;;;;;;4999536;28;46411;-69
2022/10/11 02:45:53;;;;;;;17.17;8.33;;;13.70;67.80;;;;;;4995967;28;46490;-69
2022/10/11 02:48:18;;;;;;;11.97;8.33;;;13.70;67.60;;;;;;5000724;28;46404;-69
2022/10/11 02:50:44;;;;;;;11.17;7.50;;;13.70;67.70;;;;;;5001276;28;46576;-69
2022/10/11 02:53:10;;;;;;;12.40;6.70;;;13.70;67.50;;;;;;5000196;28;46501;-69
2022/10/11 02:55:35;;;;;;;12.33;7.70;;;13.70;67.60;;;;;;5000085;28;46376;-68
2022/10/11 02:58:01;;;;;;;16.20;8.03;;;13.70;67.70;;;;;;5000631;28;45991;-69
2022/10/11 03:00:27;;;;;;;12.60;7.60;;;13.70;67.30;;;;;;5002008;28;46282;-68
2022/10/11 03:02:53;;;;;;;16.03;7.37;;;13.80;67.40;;;;;;5000916;28;46390;-69
2022/10/11 03:05:19;;;;;;;17.53;7.80;;;13.80;67.40;;;;;;4999698;28;46278;-68
2022/10/11 03:07:44;;;;;;;12.80;8.00;;;13.80;67.60;;;;;;5000435;28;46560;-69
2022/10/11 03:10:10;;;;;;;15.73;7.40;;;13.80;67.70;;;;;;5000887;28;46400;-68
2022/10/11 03:12:36;;;;;;;16.40;7.70;;;13.70;67.70;;;;;;5000822;28;46633;-68
2022/10/11 03:15:02;;;;;;;15.20;7.40;;;13.70;67.80;;;;;;5001291;28;46429;-69
2022/10/11 03:17:27;;;;;;;17.13;7.73;;;13.70;67.80;;;;;;4998681;28;46393;-68
2022/10/11 03:19:54;;;;;;;18.30;7.67;;;13.70;67.80;;;;;;4998792;28;46062;-68
2022/10/11 03:22:19;;;;;;;16.77;8.17;;;13.70;67.80;;;;;;5000479;28;46482;-69
2022/10/11 03:24:45;;;;;;;15.27;8.03;;;13.70;67.80;;;;;;4999911;28;46356;-69
2022/10/11 03:27:11;;;;;;;15.60;7.67;;;13.70;67.80;;;;;;4999377;28;46452;-68
2022/10/11 03:29:37;;;;;;;18.03;7.10;;;13.70;67.80;;;;;;4999798;28;46768;-69
2022/10/11 03:32:02;;;;;;;16.37;8.30;;;13.70;67.90;;;;;;5000354;28;46430;-68
2022/10/11 03:34:28;;;;;;;17.20;7.90;;;13.70;67.80;;;;;;4997986;28;46404;-69
2022/10/11 03:36:54;;;;;;;14.13;7.87;;;13.70;67.80;;;;;;5000677;28;46365;-69
2022/10/11 03:39:19;;;;;;;16.07;7.10;;;13.70;67.80;;;;;;5001596;28;46651;-68
2022/10/11 03:41:45;;;;;;;21.93;7.90;;;13.70;67.80;;;;;;5002970;28;46370;-69
2022/10/11 03:44:10;;;;;;;19.13;7.67;;;13.70;67.90;;;;;;4998330;28;46399;-68
2022/10/11 03:46:36;;;;;;;12.37;7.13;;;13.70;67.80;;;;;;5001229;28;46394;-68
2022/10/11 03:49:02;;;;;;;14.20;7.40;;;13.70;67.80;;;;;;4998980;28;46435;-68
2022/10/11 03:51:27;;;;;;;13.60;7.10;;;13.70;67.90;;;;;;5012737;28;46128;-68
2022/10/11 03:53:53;;;;;;;14.07;7.37;;;13.70;67.80;;;;;;5003954;28;46595;-68
2022/10/11 03:56:18;;;;;;;11.20;7.30;;;13.70;67.90;;;;;;5002686;28;46495;-68
2022/10/11 03:58:44;;;;;;;13.20;7.53;;;13.70;67.80;;;;;;5001340;28;46432;-68
2022/10/11 04:01:10;;;;;;;15.07;7.63;;;13.70;67.80;;;;;;5001181;28;46394;-68
2022/10/11 04:03:36;;;;;;;15.23;7.60;;;13.60;67.70;;;;;;5002436;28;46477;-68
2022/10/11 04:06:01;;;;;;;15.27;8.03;;;13.70;67.80;;;;;;5003437;28;46374;-68
2022/10/11 04:08:27;;;;;;;14.90;7.80;;;13.70;67.80;;;;;;5004303;28;46463;-67
2022/10/11 04:10:52;;;;;;;14.73;7.33;;;13.80;67.90;;;;;;5003602;28;46907;-68
2022/10/11 04:13:18;;;;;;;14.23;7.83;;;13.80;67.90;;;;;;5003189;28;46607;-68
2022/10/11 04:15:43;;;;;;;12.53;7.27;;;13.90;68.00;;;;;;5003374;28;46314;-68
2022/10/11 04:18:10;;;;;;;13.33;7.83;;;13.80;68.00;;;;;;5005088;28;46389;-68
2022/10/11 04:20:36;;;;;;;18.03;7.97;;;13.90;68.00;;;;;;5002891;28;46506;-68
2022/10/11 04:23:01;;;;;;;11.10;6.73;;;13.90;68.00;;;;;;5003207;28;45831;-68
2022/10/11 04:25:27;;;;;;;24.43;8.60;;;14.00;68.00;;;;;;5002933;28;46420;-68
2022/10/11 04:27:53;;;;;;;18.27;7.77;;;14.00;67.70;;;;;;5003440;28;46444;-68
2022/10/11 04:30:18;;;;;;;15.80;8.53;;;14.00;67.60;;;;;;5004219;28;46403;-67
2022/10/11 04:32:44;;;;;;;14.47;7.90;;;14.10;67.40;;;;;;5003552;28;46642;-67
2022/10/11 04:35:10;;;;;;;85.13;45.00;;;14.10;67.40;;;;;;5002043;28;46410;-67
2022/10/11 04:37:36;;;;;;;16.03;10.13;;;14.20;67.40;;;;;;5002697;28;46364;-66
2022/10/11 04:40:03;;;;;;;17.93;7.90;;;14.10;67.50;;;;;;5002333;28;46592;-66
2022/10/11 04:42:29;;;;;;;445.07;231.40;;;14.10;68.20;;;;;;5002724;28;45956;-67
2022/10/11 04:44:54;;;;;;;16.53;11.47;;;14.10;68.20;;;;;;5001870;28;46353;-69
2022/10/11 04:47:20;;;;;;;14.30;9.10;;;14.20;68.30;;;;;;5003677;28;46569;-68
2022/10/11 04:49:45;;;;;;;30.63;19.13;;;14.10;68.20;;;;;;5002822;28;46424;-68
2022/10/11 04:52:11;;;;;;;21.63;12.90;;;14.00;68.30;;;;;;5002129;28;46494;-67
2022/10/11 04:54:36;;;;;;;21.23;13.50;;;14.10;68.70;;;;;;5003086;28;46370;-68
2022/10/11 04:57:05;;;;;;;19.83;12.17;;;14.10;68.70;;;;;;5002392;28;46604;-68
2022/10/11 04:59:30;;;;;;;16.70;9.27;;;14.20;68.70;;;;;;5002063;28;46250;-68
2022/10/11 05:01:56;;;;;;;19.67;11.93;;;14.20;68.70;;;;;;5001420;28;46315;-68
2022/10/11 05:04:21;;;;;;;14.60;9.43;;;14.30;68.70;;;;;;5004024;28;46445;-69
2022/10/11 05:06:47;;;;;;;22.83;11.17;;;14.30;68.50;;;;;;5001739;28;45966;-68
2022/10/11 05:09:13;;;;;;;15.90;7.50;;;14.30;68.40;;;;;;5002654;28;47022;-69
2022/10/11 05:11:38;;;;;;;13.33;7.33;;;14.30;68.40;;;;;;5002270;28;46406;-69
2022/10/11 05:14:04;;;;;;;14.23;7.10;;;14.40;68.50;;;;;;4999091;28;46502;-67
2022/10/11 05:16:29;;;;;;;10.37;6.70;;;14.40;68.50;;;;;;5003043;28;46310;-68
2022/10/11 05:18:55;;;;;;;14.30;6.77;;;14.40;68.50;;;;;;5002978;28;47140;-68
2022/10/11 05:21:24;;;;;;;17.83;8.87;;;14.40;68.50;;;;;;5002627;28;46423;-68
2022/10/11 05:23:51;;;;;;;10.80;6.73;;;14.40;68.50;;;;;;5002183;28;46346;-68
2022/10/11 05:26:18;;;;;;;14.90;5.60;;;14.40;68.50;;;;;;5002156;28;46403;-68
2022/10/11 05:28:44;;;;;;;14.67;7.40;;;14.40;68.50;;;;;;5001122;28;47565;-67
2022/10/11 05:31:10;;;;;;;19.53;7.20;;;14.40;68.50;;;;;;5003043;28;46612;-68
2022/10/11 05:33:36;;;;;;;408.90;254.97;;;14.40;68.50;;;;;;5000696;28;46505;-69
2022/10/11 05:36:02;;;;;;;21.90;13.23;;;14.40;68.50;;;;;;5002065;28;46668;-68
2022/10/11 05:38:27;;;;;;;28.10;14.20;;;14.50;68.60;;;;;;5000064;28;48227;-67
2022/10/11 05:40:53;;;;;;;12.60;6.93;;;14.40;68.50;;;;;;5002526;28;46454;-68
2022/10/11 05:43:19;;;;;;;15.83;8.37;;;14.40;68.50;;;;;;5001204;28;46306;-68
2022/10/11 05:45:45;;;;;;;11.87;6.30;;;14.40;68.50;;;;;;5001622;28;45891;-68
2022/10/11 05:48:11;;;;;;;17.80;9.37;;;14.30;68.40;;;;;;5002252;28;46152;-67
2022/10/11 05:50:37;;;;;;;10.63;5.70;;;14.20;68.70;;;;;;5002289;28;46322;-68
2022/10/11 05:53:04;;;;;;;14.40;6.73;;;14.20;69.40;;;;;;5006362;28;46353;-68
2022/10/11 05:55:34;;;;;;;14.87;6.67;;;14.10;69.40;;;;;;5000991;28;46633;-68
2022/10/11 05:57:59;;;;;;;16.20;7.93;;;14.10;69.40;;;;;;5001668;28;47373;-68
2022/10/11 06:00:25;;;;;;;14.33;6.17;;;14.10;69.40;;;;;;5001917;28;46323;-68
2022/10/11 06:02:50;;;;;;;15.20;7.27;;;14.10;69.40;;;;;;5002395;28;45836;-68
2022/10/11 06:05:16;;;;;;;12.33;6.00;;;14.10;69.00;;;;;;5001444;28;46464;-68
2022/10/11 06:07:42;;;;;;;12.07;5.83;;;14.20;68.90;;;;;;5002523;28;47417;-68
2022/10/11 06:10:08;;;;;;;10.10;6.13;;;14.20;68.30;;;;;;5001434;28;46366;-68
2022/10/11 06:12:34;;;;;;;15.70;7.07;;;14.30;68.40;;;;;;5001856;28;46429;-68
2022/10/11 06:15:00;;;;;;;17.43;6.83;;;14.40;68.50;;;;;;5002293;28;46405;-67
2022/10/11 06:17:25;;;;;;;14.90;6.60;;;14.40;68.50;;;;;;5003114;28;47091;-68
2022/10/11 06:19:51;;;;;;;12.27;6.37;;;14.50;67.90;;;;;;5008957;28;46460;-68
2022/10/11 06:22:17;;;;;;;12.47;7.47;;;14.60;67.70;;;;;;5002318;28;46394;-68
2022/10/11 06:24:42;;;;;;;15.93;6.80;;;14.70;67.50;;;;;;4999980;28;46797;-69
2022/10/11 06:27:08;;;;;;;14.50;6.73;;;14.80;67.20;;;;;;4996382;28;46427;-68
2022/10/11 06:29:34;;;;;;;11.00;5.33;;;15.00;67.10;;;;;;5000627;28;45851;-67
2022/10/11 06:32:00;;;;;;;15.73;7.13;;;15.20;66.70;;;;;;4999968;28;46870;-69
2022/10/11 06:34:26;;;;;;;22.73;10.60;;;15.30;66.30;;;;;;4997076;28;46478;-67
2022/10/11 06:36:51;;;;;;;21.87;10.97;;;15.30;66.10;;;;;;4999660;28;46383;-68
2022/10/11 06:39:17;;;;;;;20.67;10.50;;;15.40;66.00;;;;;;4998675;28;46426;-66
2022/10/11 06:41:43;;;;;;;15.70;9.37;;;15.50;65.90;;;;;;5001223;28;45820;-68
2022/10/11 06:44:13;;;;;;;23.20;10.17;;;15.60;65.90;;;;;;4998395;28;46493;-68
2022/10/11 06:46:38;;;;;;;15.03;9.20;;;15.70;65.90;;;;;;4998210;28;46430;-69
2022/10/11 06:49:04;;;;;;;14.77;7.57;;;15.70;65.80;;;;;;5000156;28;46638;-68
2022/10/11 06:51:30;;;;;;;16.93;6.40;;;15.70;65.90;;;;;;4998726;28;45880;-67
2022/10/11 06:53:58;;;;;;;8.60;5.33;;;15.70;66.00;;;;;;4997790;28;46426;-68
2022/10/11 06:56:25;;;;;;;11.20;5.10;;;15.80;65.90;;;;;;4994318;28;46541;-68
2022/10/11 06:58:52;;;;;;;13.33;5.87;;;15.80;65.90;;;;;;5000145;28;46366;-68
2022/10/11 07:01:20;;;;;;;9.33;5.47;;;15.70;66.10;;;;;;5002594;28;46379;-70
2022/10/11 07:03:46;;;;;;;13.90;4.93;;;15.70;66.20;;;;;;4995965;28;46621;-71
2022/10/11 07:06:14;;;;;;;9.07;4.40;;;15.70;67.50;;;;;;4999187;28;46918;-69
2022/10/11 07:08:40;;;;;;;12.10;5.27;;;15.80;66.10;;;;;;4999514;28;46789;-69
2022/10/11 07:11:08;;;;;;;13.70;4.97;;;15.90;65.60;;;;;;5000443;28;46506;-70
2022/10/11 07:13:36;;;;;;;17.13;5.20;;;16.00;65.40;;;;;;4998812;28;46402;-70
2022/10/11 07:16:03;;;;;;;13.27;5.50;;;16.00;65.20;;;;;;4998422;28;46565;-69
2022/10/11 07:18:29;;;;;;;12.20;5.07;;;16.20;65.10;;;;;;4998927;28;45836;-70
2022/10/11 07:20:55;;;;;;;11.47;5.10;;;16.30;64.90;;;;;;4999609;28;46339;-70
2022/10/11 07:23:20;;;;;;;10.50;5.60;;;16.50;64.60;;;;;;4999297;28;46812;-71
2022/10/11 07:25:46;;;;;;;11.97;4.80;;;16.70;64.20;;;;;;5000055;28;46504;-69
2022/10/11 07:28:12;;;;;;;15.03;5.07;;;16.80;64.00;;;;;;4995595;28;46470;-70
2022/10/11 07:30:40;;;;;;;9.20;5.13;;;17.00;63.80;;;;;;4998581;28;46311;-68
2022/10/11 07:33:05;;;;;;;15.50;5.33;;;17.10;63.50;;;;;;5000451;28;46513;-68
2022/10/11 07:35:35;;;;;;;10.63;4.73;;;17.30;63.20;;;;;;4997996;28;46362;-69
2022/10/11 07:38:00;;;;;;;8.53;4.30;;;17.50;62.70;;;;;;4998682;28;46502;-70
2022/10/11 07:40:26;;;;;;;9.80;4.67;;;17.70;62.00;;;;;;4999725;28;46433;-69
2022/10/11 07:42:52;;;;;;;15.03;6.40;;;17.60;62.00;;;;;;4997495;28;46741;-68
2022/10/11 07:45:17;;;;;;;11.73;6.00;;;17.50;62.40;;;;;;4999368;28;46437;-69
2022/10/11 07:47:45;;;;;;;18.17;6.33;;;17.20;61.70;;;;;;4998953;28;46498;-68
2022/10/11 07:50:11;;;;;;;17.37;6.87;;;16.90;62.70;;;;;;5000326;28;46414;-68
2022/10/11 07:52:37;;;;;;;12.20;6.90;;;16.90;63.30;;;;;;4999391;28;46623;-68
2022/10/11 07:55:03;;;;;;;19.20;8.10;;;17.00;62.60;;;;;;4999383;28;47299;-68
2022/10/11 07:57:28;;;;;;;14.50;7.43;;;16.80;62.70;;;;;;4996748;28;46425;-67
2022/10/11 07:59:54;;;;;;;17.10;7.33;;;16.80;63.10;;;;;;5016000;28;46631;-67
2022/10/11 08:02:19;;;;;;;21.47;9.17;;;17.00;62.30;;;;;;4999096;28;46421;-67
2022/10/11 08:04:45;;;;;;;22.23;8.10;;;17.00;62.80;;;;;;4998854;28;47021;-68
2022/10/11 08:07:10;;;;;;;23.13;8.43;;;17.00;62.70;;;;;;4998577;28;46429;-67
2022/10/11 08:09:36;;;;;;;23.03;8.43;;;17.10;62.60;;;;;;5001195;28;46573;-67
2022/10/11 08:12:02;;;;;;;23.67;8.23;;;17.20;62.50;;;;;;4997757;28;46454;-68
2022/10/11 08:14:27;;;;;;;23.20;8.80;;;17.20;62.20;;;;;;4997131;28;46465;-70
2022/10/11 08:16:53;;;;;;;21.63;8.43;;;17.10;62.30;;;;;;4998641;28;46550;-68
2022/10/11 08:19:18;;;;;;;20.50;7.03;;;17.10;62.50;;;;;;4999895;28;46452;-69
2022/10/11 08:21:44;;;;;;;16.97;7.00;;;17.20;62.00;;;;;;4997872;28;46295;-68
2022/10/11 08:24:12;;;;;;;15.37;7.63;;;17.10;61.60;;;;;;4996276;28;46425;-69
2022/10/11 08:26:38;;;;;;;22.27;8.87;;;17.10;61.60;;;;;;4999967;28;46407;-68
2022/10/11 08:29:05;;;;;;;21.07;8.17;;;17.10;61.40;;;;;;4997788;28;46409;-69
2022/10/11 08:31:32;;;;;;;24.53;8.07;;;17.10;62.50;;;;;;4999732;28;45915;-68
2022/10/11 08:33:57;;;;;;;20.00;7.67;;;17.20;61.00;;;;;;4995700;28;46421;-70
2022/10/11 08:36:23;;;;;;;17.33;8.03;;;17.20;60.90;;;;;;4994540;28;46498;-70
2022/10/11 08:38:48;;;;;;;19.20;8.13;;;17.40;61.80;;;;;;4999304;28;46403;-71
2022/10/11 08:41:17;;;;;;;24.20;9.87;;;17.40;59.80;;;;;;4997940;28;46432;-70
2022/10/11 08:44:13;;;;;;;23.90;8.47;;;17.50;60.00;;;;;;4995665;28;47016;-71
2022/10/11 08:46:43;;;;;;;16.53;8.33;;;17.60;59.30;;;;;;4999712;28;46404;-69
2022/10/11 08:49:11;;;;;;;20.13;8.50;;;17.80;59.00;;;;;;5016835;28;46489;-68
2022/10/11 08:51:44;;;;;;;19.67;9.27;;;17.70;58.80;;;;;;5000017;28;46519;-69
2022/10/11 08:54:30;;;;;;;20.27;8.47;;;17.80;58.80;;;;;;5001071;28;46772;-69
2022/10/11 08:56:55;;;;;;;16.20;7.03;;;17.80;58.80;;;;;;4998557;28;46433;-69
2022/10/11 08:59:43;;;;;;;19.20;8.43;;;17.80;58.50;;;;;;5001394;28;46411;-69
2022/10/11 09:02:12;;;;;;;19.50;8.97;;;17.80;58.80;;;;;;4999829;28;46434;-69
2022/10/11 09:04:39;;;;;;;20.80;7.80;;;17.80;58.80;;;;;;5016920;28;48372;-68
2022/10/11 09:07:40;;;;;;;19.47;7.40;;;17.70;58.90;;;;;;5002036;28;46454;-72
2022/10/11 09:10:57;;;;;;;18.03;8.13;;;17.70;58.70;;;;;;5009720;28;45811;-70
2022/10/11 09:13:48;;;;;;;14.17;7.53;;;17.60;58.60;;;;;;4979708;28;46616;-71
2022/10/11 09:16:23;;;;;;;21.40;9.37;;;17.70;58.30;;;;;;5003266;28;46456;-70
2022/10/11 09:19:35;;;;;;;28.53;9.67;;;17.80;58.10;;;;;;5000209;28;46433;-69
2022/10/11 09:22:26;;;;;;;16.63;7.13;;;18.00;57.20;;;;;;5003139;28;46521;-71
2022/10/11 09:24:51;;;;;;;22.73;9.43;;;18.20;56.10;;;;;;5002478;28;46418;-69
2022/10/11 09:27:34;;;;;;;20.57;7.60;;;18.40;55.70;;;;;;5003479;28;47063;-70
2022/10/11 09:30:00;;;;;;;20.60;7.90;;;18.20;55.80;;;;;;5001604;28;45844;-72
2022/10/11 09:32:32;;;;;;;17.00;8.83;;;18.10;56.60;;;;;;5004242;28;46483;-69
2022/10/11 09:35:08;;;;;;;23.30;9.67;;;18.10;56.10;;;;;;4999189;28;46483;-69
2022/10/11 09:37:43;;;;;;;29.03;15.13;;;18.00;56.30;;;;;;5000979;28;46479;-68
2022/10/11 09:40:10;;;;;;;21.77;8.63;;;18.10;56.10;;;;;;5001699;28;46375;-69
2022/10/11 09:42:37;;;;;;;18.17;8.10;;;18.30;55.50;;;;;;4999836;28;46853;-68
2022/10/11 09:45:22;;;;;;;27.83;8.47;;;18.50;54.70;;;;;;5002232;28;46485;-68
2022/10/11 09:47:52;;;;;;;17.00;8.70;;;18.80;53.60;;;;;;5021089;28;48045;-68
2022/10/11 09:50:24;;;;;;;20.10;8.40;;;19.10;52.70;;;;;;5003815;28;46555;-68
2022/10/11 09:52:59;;;;;;;20.53;8.40;;;19.40;51.60;;;;;;5002636;28;46537;-69
2022/10/11 09:55:38;;;;;;;22.27;7.57;;;19.40;52.50;;;;;;4999906;28;46356;-69
2022/10/11 09:58:26;;;;;;;18.07;8.40;;;19.40;50.50;;;;;;5001645;28;47276;-68
2022/10/11 10:01:01;;;;;;;24.13;9.07;;;19.30;50.90;;;;;;4998329;28;46398;-68
2022/10/11 10:03:40;;;;;;;22.27;8.70;;;19.20;51.40;;;;;;5002242;28;46422;-70
2022/10/11 10:06:23;;;;;;;19.80;8.00;;;19.20;51.10;;;;;;5016665;28;46400;-69
2022/10/11 10:08:49;;;;;;;14.70;8.50;;;19.10;51.30;;;;;;5000625;28;48239;-72
2022/10/11 10:11:16;;;;;;;15.90;7.57;;;19.30;50.90;;;;;;5006526;28;46505;-70
2022/10/11 10:13:53;;;;;;;26.47;9.30;;;19.50;51.10;;;;;;5005665;28;45828;-72
2022/10/11 10:16:32;;;;;;;21.73;8.13;;;19.60;49.40;;;;;;4998109;28;45798;-74
2022/10/11 10:19:04;;;;;;;19.30;8.23;;;19.60;48.80;;;;;;4999566;28;46441;-74
2022/10/11 10:21:34;;;;;;;23.13;8.00;;;19.70;48.50;;;;;;4999618;28;46399;-72
2022/10/11 10:24:04;;;;;;;13.33;7.00;;;20.00;47.90;;;;;;4997760;28;46434;-71
2022/10/11 10:26:30;;;;;;;22.77;6.90;;;19.90;47.60;;;;;;4999415;28;46311;-71
2022/10/11 10:29:08;;;;;;;21.30;7.00;;;19.80;48.00;;;;;;4998655;28;46497;-70
2022/10/11 10:31:48;;;;;;;18.40;7.93;;;19.90;47.60;;;;;;4997831;28;46399;-71
2022/10/11 10:34:24;;;;;;;21.00;7.80;;;19.90;47.50;;;;;;4996450;28;46570;-71
2022/10/11 10:36:55;;;;;;;24.80;7.90;;;20.00;47.70;;;;;;5000788;28;45873;-72
2022/10/11 10:39:36;;;;;;;18.67;7.07;;;20.10;47.70;;;;;;4998789;28;46990;-72
2022/10/11 10:42:05;;;;;;;14.83;7.10;;;20.40;46.70;;;;;;4999804;28;46427;-72
2022/10/11 10:44:31;;;;;;;18.23;7.10;;;20.60;46.20;;;;;;4996240;28;46433;-71
2022/10/11 10:47:05;;;;;;;17.20;7.07;;;20.70;45.50;;;;;;5002299;28;45986;-72
2022/10/11 10:49:49;;;;;;;17.80;7.10;;;20.60;45.50;;;;;;5002862;28;48023;-74
2022/10/11 10:52:20;;;;;;;17.93;6.67;;;20.40;45.90;;;;;;4998757;28;46500;-74
2022/10/11 10:55:04;;;;;;;19.57;6.83;;;20.60;45.90;;;;;;5001442;28;46562;-74
2022/10/11 10:58:05;;;;;;;22.90;6.73;;;20.60;45.90;;;;;;4999969;28;46368;-74
2022/10/11 11:01:01;;;;;;;14.33;5.93;;;20.60;45.10;;;;;;5000890;28;46356;-74
2022/10/11 11:03:49;;;;;;;15.00;6.60;;;20.50;45.10;;;;;;4998729;28;46280;-72
2022/10/11 11:06:26;;;;;;;16.03;5.93;;;20.40;45.50;;;;;;5000451;28;46646;-76
2022/10/11 11:09:26;;;;;;;17.23;6.47;;;20.40;45.40;;;;;;5015357;28;46336;-71
2022/10/11 11:12:19;;;;;;;21.93;6.53;;;20.50;45.00;;;;;;4990299;28;46581;-70
2022/10/11 11:15:00;;;;;;;16.43;6.10;;;20.50;44.10;;;;;;4995117;28;45855;-72
2022/10/11 11:17:54;;;;;;;13.53;6.23;;;20.50;44.50;;;;;;4999344;28;46463;-71
2022/10/11 11:20:33;;;;;;;18.23;6.53;;;20.50;44.40;;;;;;5000508;28;46418;-72
2022/10/11 11:23:40;;;;;;;11.87;6.20;;;20.60;44.10;;;;;;4997483;28;47151;-72
2022/10/11 11:26:14;;;;;;;13.90;5.10;;;20.80;43.50;;;;;;4996652;28;46582;-73
2022/10/11 11:29:06;;;;;;;14.97;6.30;;;20.90;43.40;;;;;;4999844;28;46467;-71
2022/10/11 11:31:40;;;;;;;16.93;5.90;;;20.60;44.00;;;;;;4999131;28;46475;-70
2022/10/11 11:34:24;;;;;;;13.63;6.23;;;20.40;44.40;;;;;;4997640;28;46568;-72
2022/10/11 11:37:02;;;;;;;17.17;6.20;;;20.30;44.60;;;;;;4998450;28;45869;-71
2022/10/11 11:39:43;;;;;;;20.97;6.20;;;20.40;44.40;;;;;;5001639;28;46488;-71
2022/10/11 11:42:22;;;;;;;17.70;5.73;;;20.30;44.30;;;;;;4999690;28;46272;-72
2022/10/11 11:44:50;;;;;;;15.10;5.87;;;20.30;44.90;;;;;;4995826;28;47446;-73
2022/10/11 11:47:28;;;;;;;15.27;6.90;;;20.10;45.00;;;;;;4998388;28;46466;-72
2022/10/11 11:50:21;;;;;;;17.33;6.57;;;20.20;44.50;;;;;;5001302;28;46347;-72
2022/10/11 11:52:58;;;;;;;14.57;5.30;;;20.10;44.20;;;;;;4999867;28;46439;-71
2022/10/11 11:55:51;;;;;;;20.90;6.40;;;20.20;44.50;;;;;;4996580;28;46410;-72
2022/10/11 11:58:28;;;;;;;16.17;5.70;;;20.60;44.30;;;;;;5000190;28;46426;-72
2022/10/11 12:00:58;;;;;;;12.77;5.77;;;20.70;43.30;;;;;;5012028;28;45807;-72
2022/10/11 12:03:28;;;;;;;15.00;5.43;;;20.80;42.40;;;;;;4998116;28;46475;-73
2022/10/11 12:06:16;;;;;;;20.07;6.17;;;20.40;41.90;;;;;;4994340;28;46499;-75
2022/10/11 12:09:08;;;;;;;21.10;5.70;;;20.30;42.50;;;;;;4996758;28;46496;-74
2022/10/11 12:11:36;;;;;;;19.27;5.33;;;19.90;42.40;;;;;;4995695;28;46664;-72
2022/10/11 12:14:15;;;;;;;14.70;6.27;;;19.60;42.40;;;;;;4998639;28;46525;-73
2022/10/11 12:17:20;;;;;;;19.50;6.50;;;19.50;42.70;;;;;;5000328;28;46418;-74
2022/10/11 12:20:07;;;;;;;17.20;7.10;;;19.50;43.30;;;;;;4998980;28;46450;-73
2022/10/11 12:22:32;;;;;;;23.70;6.17;;;19.60;43.30;;;;;;4999566;28;46355;-72
2022/10/11 12:25:20;;;;;;;15.27;6.43;;;19.40;43.50;;;;;;5001371;28;46452;-74
2022/10/11 12:27:49;;;;;;;12.27;5.50;;;19.40;43.70;;;;;;5000891;28;47226;-75
2022/10/11 12:30:45;;;;;;;11.33;6.13;;;19.30;44.10;;;;;;5002389;28;46804;-76
2022/10/11 12:33:42;;;;;;;13.63;6.00;;;19.10;45.00;;;;;;5000428;28;46340;-73
2022/10/11 12:36:35;;;;;;;14.37;6.67;;;19.10;45.40;;;;;;5000719;28;46343;-74
2022/10/11 12:39:19;;;;;;;16.23;6.23;;;18.80;46.60;;;;;;5002588;28;46493;-75
2022/10/11 12:44:27;;;;;;;14.63;6.63;;;18.40;47.70;;;;;;5001416;28;46383;-72
2022/10/11 12:46:53;;;;;;;19.57;7.57;;;18.20;48.80;;;;;;5002000;28;46853;-71
2022/10/11 12:49:35;;;;;;;19.00;7.10;;;18.30;48.90;;;;;;5000154;28;48218;-72
2022/10/11 12:52:02;;;;;;;25.63;6.90;;;18.40;48.80;;;;;;4999664;28;46343;-72
2022/10/11 12:54:55;;;;;;;28.40;7.67;;;18.30;48.80;;;;;;4996878;28;46437;-71
2022/10/11 12:57:30;;;;;;;20.60;7.43;;;18.50;48.30;;;;;;5001578;28;46401;-71
2022/10/11 13:00:15;;;;;;;21.73;7.03;;;18.50;48.10;;;;;;5001264;28;46644;-72